createdAt,value
2024-03-02T00:03:04.666Z,75.37
2024-03-02T00:06:31.551Z,75.39
2024-03-02T00:09:58.731Z,75.63
2024-03-02T00:13:25.846Z,75.39
2024-03-02T00:16:54.713Z,75.58
2024-03-02T00:20:24.691Z,75.72
2024-03-02T00:23:53.845Z,75.85
2024-03-02T00:27:22.239Z,75.68
2024-03-02T00:31:00.477Z,75.80
2024-03-02T00:34:29.033Z,76.00
2024-03-02T00:37:55.264Z,75.78
2024-03-02T00:41:26.657Z,75.66
2024-03-02T00:44:53.283Z,75.85
2024-03-02T00:48:20.856Z,75.95
2024-03-02T00:51:51.353Z,75.99
2024-03-02T00:55:18.025Z,76.18
2024-03-02T00:58:44.157Z,76.12
2024-03-02T01:02:13.151Z,76.13
2024-03-02T01:05:39.590Z,76.01
2024-03-02T01:09:06.344Z,76.00
2024-03-02T01:12:33.397Z,76.39
2024-03-02T01:15:59.982Z,76.29
2024-03-02T01:19:28.283Z,76.45
2024-03-02T01:22:54.881Z,76.79
2024-03-02T01:26:22.027Z,76.96
2024-03-02T01:29:48.159Z,77.04
2024-03-02T01:33:14.071Z,76.85
2024-03-02T01:36:40.784Z,76.75
2024-03-02T01:40:10.521Z,76.87
2024-03-02T01:43:40.376Z,76.78
2024-03-02T01:47:08.486Z,76.95
2024-03-02T01:50:35.522Z,76.81
2024-03-02T01:54:03.985Z,77.04
2024-03-02T01:57:30.750Z,76.76
2024-03-02T02:00:57.225Z,77.17
2024-03-02T02:04:29.160Z,76.87
2024-03-02T02:07:54.974Z,77.06
2024-03-02T02:11:21.344Z,77.05
2024-03-02T02:14:52.569Z,76.76
2024-03-02T02:18:18.506Z,76.82
2024-03-02T02:21:47.364Z,76.81
2024-03-02T02:25:13.918Z,76.90
2024-03-02T02:28:40.221Z,77.00
2024-03-02T02:32:06.842Z,77.29
2024-03-02T02:35:32.619Z,77.34
2024-03-02T02:38:59.820Z,77.16
2024-03-02T02:42:25.932Z,77.29
2024-03-02T02:45:52.550Z,77.07
2024-03-02T02:49:19.107Z,76.95
2024-03-02T02:52:46.194Z,77.46
2024-03-02T02:56:12.218Z,77.25
2024-03-02T02:59:39.490Z,77.21
2024-03-02T03:03:05.982Z,77.41
2024-03-02T03:06:31.871Z,77.30
2024-03-02T03:09:58.413Z,77.52
2024-03-02T03:13:25.271Z,77.63
2024-03-02T03:16:52.161Z,77.54
2024-03-02T03:20:18.459Z,77.44
2024-03-02T03:23:44.327Z,77.41
2024-03-02T03:27:10.458Z,77.25
2024-03-02T03:30:36.522Z,77.44
2024-03-02T03:34:02.340Z,77.08
2024-03-02T03:37:34.700Z,77.42
2024-03-02T03:41:01.962Z,77.31
2024-03-02T03:44:29.210Z,77.62
2024-03-02T03:47:55.385Z,77.59
2024-03-02T03:51:21.202Z,77.87
2024-03-02T03:54:47.618Z,77.76
2024-03-02T03:58:21.339Z,78.15
2024-03-02T04:01:49.468Z,77.81
2024-03-02T04:05:16.147Z,78.21
2024-03-02T04:08:43.726Z,78.13
2024-03-02T04:12:10.565Z,78.14
2024-03-02T04:15:36.823Z,78.25
2024-03-02T04:19:03.330Z,78.27
2024-03-02T04:22:29.727Z,78.48
2024-03-02T04:25:55.717Z,78.48
2024-03-02T04:29:21.944Z,78.47
2024-03-02T04:32:49.162Z,78.69
2024-03-02T04:36:15.338Z,78.50
2024-03-02T04:39:41.599Z,78.82
2024-03-02T04:43:09.860Z,78.64
2024-03-02T04:46:37.115Z,78.67
2024-03-02T04:50:03.676Z,78.70
2024-03-02T04:53:29.800Z,78.56
2024-03-02T04:56:56.130Z,78.07
2024-03-02T05:00:22.286Z,78.07
2024-03-02T05:03:48.796Z,78.35
2024-03-02T05:07:15.320Z,78.17
2024-03-02T05:10:41.103Z,78.27
2024-03-02T05:14:07.481Z,78.08
2024-03-02T05:17:34.077Z,78.31
2024-03-02T05:21:00.903Z,78.42
2024-03-02T05:24:28.806Z,78.92
2024-03-02T05:27:55.382Z,78.72
2024-03-02T05:31:24.525Z,78.54
2024-03-02T05:34:52.189Z,78.78
2024-03-02T05:38:18.634Z,78.61
2024-03-02T05:41:44.770Z,78.55
2024-03-02T05:45:12.309Z,78.56
2024-03-02T05:48:38.400Z,79.05
2024-03-02T05:52:04.650Z,78.81
2024-03-02T05:55:31.094Z,78.72
2024-03-02T05:59:10.050Z,78.54
2024-03-02T06:02:40.005Z,78.82
2024-03-02T06:06:07.833Z,78.53
2024-03-02T06:09:33.797Z,78.29
2024-03-02T06:13:00.368Z,78.32
2024-03-02T06:16:26.598Z,78.22
2024-03-02T06:19:52.938Z,78.47
2024-03-02T06:23:20.269Z,78.64
2024-03-02T06:26:46.304Z,78.46
2024-03-02T06:30:14.762Z,78.36
2024-03-02T06:33:41.652Z,78.22
2024-03-02T06:37:08.554Z,78.49
2024-03-02T06:40:35.557Z,78.54
2024-03-02T06:44:01.826Z,78.60
2024-03-02T06:47:28.021Z,78.69
2024-03-02T06:50:54.564Z,78.86
2024-03-02T06:54:20.404Z,79.08
2024-03-02T06:57:46.604Z,78.87
2024-03-02T07:01:12.857Z,78.84
2024-03-02T07:04:39.405Z,78.98
2024-03-02T07:08:06.642Z,79.00
2024-03-02T07:11:33.712Z,79.00
2024-03-02T07:15:20.052Z,78.73
2024-03-02T07:18:53.560Z,78.76
2024-03-02T07:22:20.187Z,78.74
2024-03-02T07:29:15.418Z,78.29
2024-03-02T07:32:43.370Z,78.31
2024-03-02T07:36:12.124Z,78.53
2024-03-02T07:39:38.463Z,78.53
2024-03-02T07:43:06.999Z,78.20
2024-03-02T07:46:36.009Z,78.19
2024-03-02T07:50:02.857Z,78.47
2024-03-02T07:53:28.892Z,78.75
2024-03-02T07:56:55.121Z,78.55
2024-03-02T08:00:21.691Z,78.57
2024-03-02T08:03:49.448Z,78.81
2024-03-02T08:07:16.279Z,78.81
2024-03-02T08:10:42.834Z,78.82
2024-03-02T08:14:09.683Z,78.52
2024-03-02T08:17:38.224Z,78.71
2024-03-02T08:21:05.935Z,78.71
2024-03-02T08:24:34.773Z,78.67
2024-03-02T08:28:04.266Z,78.63
2024-03-02T08:31:30.566Z,78.39
2024-03-02T08:34:57.026Z,78.13
2024-03-02T08:38:23.353Z,78.38
2024-03-02T08:41:50.266Z,78.42
2024-03-02T08:45:18.789Z,78.33
2024-03-02T08:48:45.518Z,78.13
2024-03-02T08:52:11.688Z,78.12
2024-03-02T08:55:37.701Z,78.18
2024-03-02T08:59:03.960Z,78.27
2024-03-02T09:02:30.495Z,77.99
2024-03-02T09:05:56.600Z,77.93
2024-03-02T09:09:23.285Z,77.95
2024-03-02T09:12:49.271Z,77.90
2024-03-02T09:16:16.180Z,77.87
2024-03-02T09:19:42.390Z,77.94
2024-03-02T09:23:08.911Z,78.11
2024-03-02T09:26:35.212Z,78.01
2024-03-02T09:30:01.589Z,78.03
2024-03-02T09:33:28.947Z,77.81
2024-03-02T09:36:56.178Z,77.63
2024-03-02T09:40:26.937Z,77.76
2024-03-02T09:43:55.444Z,77.56
2024-03-02T09:47:21.598Z,77.43
2024-03-02T09:50:48.386Z,77.48
2024-03-02T09:54:21.935Z,77.59
2024-03-02T09:57:50.024Z,77.55
2024-03-02T10:01:16.527Z,77.57
2024-03-02T10:04:42.696Z,77.74
2024-03-02T10:08:09.493Z,77.65
2024-03-02T10:11:38.813Z,77.59
2024-03-02T10:15:11.298Z,77.79
2024-03-02T10:18:37.932Z,77.43
2024-03-02T10:22:05.308Z,77.46
2024-03-02T10:29:03.905Z,77.16
2024-03-02T10:32:31.638Z,77.30
2024-03-02T10:35:59.090Z,77.15
2024-03-02T10:39:26.803Z,77.14
2024-03-02T10:42:54.094Z,76.79
2024-03-02T10:46:21.295Z,76.69
2024-03-02T10:49:49.385Z,76.51
2024-03-02T10:53:15.619Z,76.39
2024-03-02T10:56:43.805Z,76.30
2024-03-02T11:00:16.155Z,76.11
2024-03-02T11:03:44.089Z,76.08
2024-03-02T11:07:12.182Z,76.09
2024-03-02T11:10:46.056Z,76.08
2024-03-02T11:14:16.307Z,76.00
2024-03-02T11:17:43.705Z,75.78
2024-03-02T11:21:10.948Z,75.47
2024-03-02T11:24:39.004Z,75.28
2024-03-02T11:28:07.192Z,74.97
2024-03-02T11:32:01.861Z,74.78
2024-03-02T11:35:30.093Z,74.51
2024-03-02T11:38:56.711Z,74.51
2024-03-02T11:42:23.560Z,74.50
2024-03-02T11:45:49.568Z,74.30
2024-03-02T11:49:17.962Z,73.96
2024-03-02T11:52:44.693Z,73.81
2024-03-02T11:56:13.064Z,73.91
2024-03-02T11:59:39.397Z,73.74
2024-03-02T12:03:08.627Z,73.65
2024-03-02T12:06:35.597Z,73.67
2024-03-02T12:10:05.178Z,73.74
2024-03-02T12:13:32.725Z,73.36
2024-03-02T12:17:00.055Z,73.28
2024-03-02T12:20:26.932Z,73.24
2024-03-02T12:23:53.080Z,73.06
2024-03-02T12:27:22.585Z,72.81
2024-03-02T12:30:51.348Z,72.41
2024-03-02T12:34:19.897Z,71.83
2024-03-02T12:37:50.181Z,72.13
2024-03-02T12:41:19.688Z,72.10
2024-03-02T12:44:47.944Z,72.19
2024-03-02T12:48:15.829Z,72.08
2024-03-02T12:51:43.212Z,71.91
2024-03-02T12:55:12.721Z,71.78
2024-03-02T12:58:43.983Z,71.59
2024-03-02T13:02:11.905Z,71.31
2024-03-02T13:05:38.001Z,70.99
2024-03-02T13:09:05.575Z,70.85
2024-03-02T13:12:32.815Z,70.72
2024-03-02T13:16:00.474Z,70.64
2024-03-02T13:19:26.733Z,70.44
2024-03-02T13:22:53.377Z,70.41
2024-03-02T13:26:22.380Z,69.97
2024-03-02T13:29:49.743Z,69.96
2024-03-02T13:33:16.508Z,69.98
2024-03-02T13:36:44.527Z,69.98
2024-03-02T13:40:15.151Z,69.80
2024-03-02T13:43:41.645Z,69.83
2024-03-02T13:47:09.304Z,69.88
2024-03-02T13:50:36.369Z,69.87
2024-03-02T13:54:04.471Z,69.92
2024-03-02T13:57:32.205Z,69.88
2024-03-02T14:00:58.965Z,69.56
2024-03-02T14:04:25.551Z,69.45
2024-03-02T14:07:51.665Z,69.39
2024-03-02T14:11:18.982Z,69.13
2024-03-02T14:14:47.591Z,69.12
2024-03-02T14:18:14.849Z,68.97
2024-03-02T14:21:41.820Z,68.90
2024-03-02T14:25:09.453Z,68.99
2024-03-02T14:32:10.220Z,68.57
2024-03-02T14:35:36.369Z,68.47
2024-03-02T14:39:03.331Z,68.56
2024-03-02T14:42:32.936Z,68.75
2024-03-02T14:46:00.633Z,68.70
2024-03-02T14:49:29.707Z,68.75
2024-03-02T14:52:58.571Z,68.82
2024-03-02T14:56:25.150Z,68.95
2024-03-02T14:59:52.004Z,68.96
2024-03-02T15:03:18.146Z,69.11
2024-03-02T15:06:46.826Z,68.90
2024-03-02T15:10:13.074Z,68.97
2024-03-02T15:13:39.095Z,68.89
2024-03-02T15:17:05.518Z,68.97
2024-03-02T15:20:31.743Z,68.98
2024-03-02T15:23:58.932Z,69.20
2024-03-02T15:27:26.555Z,69.12
2024-03-02T15:30:55.815Z,69.38
2024-03-02T15:34:23.562Z,69.35
2024-03-02T15:37:49.715Z,69.29
2024-03-02T15:41:16.248Z,69.28
2024-03-02T15:44:45.261Z,69.36
2024-03-02T15:48:11.787Z,69.24
2024-03-02T15:51:41.869Z,69.04
2024-03-02T15:55:09.721Z,69.43
2024-03-02T15:58:37.484Z,69.39
2024-03-02T16:02:05.069Z,69.48
2024-03-02T16:05:32.284Z,69.55
2024-03-02T16:09:01.057Z,69.63
2024-03-02T16:12:27.406Z,69.85
2024-03-02T16:15:53.825Z,69.80
2024-03-02T16:19:29.229Z,69.66
2024-03-02T16:23:03.150Z,69.67
2024-03-02T16:26:32.548Z,69.85
2024-03-02T16:30:00.205Z,69.97
2024-03-02T16:33:27.177Z,69.78
2024-03-02T16:36:55.293Z,69.93
2024-03-02T16:40:22.082Z,69.97
2024-03-02T16:43:48.910Z,69.83
2024-03-02T16:47:16.666Z,69.79
2024-03-02T16:50:42.541Z,70.00
2024-03-02T16:54:08.540Z,69.96
2024-03-02T16:57:37.372Z,70.03
2024-03-02T17:01:04.622Z,70.14
2024-03-02T17:04:31.361Z,70.23
2024-03-02T17:07:59.498Z,70.23
2024-03-02T17:11:26.384Z,70.45
2024-03-02T17:14:52.524Z,70.60
2024-03-02T17:18:19.699Z,70.68
2024-03-02T17:21:45.721Z,70.72
2024-03-02T17:25:13.670Z,70.71
2024-03-02T17:28:39.798Z,70.84
2024-03-02T17:32:06.479Z,70.49
2024-03-02T17:35:33.507Z,70.56
2024-03-02T17:39:00.169Z,70.63
2024-03-02T17:42:30.559Z,70.52
2024-03-02T17:45:59.629Z,70.51
2024-03-02T17:49:25.741Z,70.57
2024-03-02T17:52:52.099Z,70.59
2024-03-02T17:56:18.707Z,70.67
2024-03-02T17:59:45.462Z,70.64
2024-03-02T18:03:12.140Z,70.86
2024-03-02T18:06:38.311Z,70.83
2024-03-02T18:10:05.101Z,70.94
2024-03-02T18:13:34.359Z,71.09
2024-03-02T18:17:00.841Z,71.19
2024-03-02T18:20:27.581Z,71.20
2024-03-02T18:23:53.923Z,71.44
2024-03-02T18:27:22.996Z,71.57
2024-03-02T18:30:48.994Z,71.47
2024-03-02T18:34:15.487Z,71.51
2024-03-02T18:37:44.031Z,71.61
2024-03-02T18:41:10.128Z,71.52
2024-03-02T18:44:36.349Z,71.44
2024-03-02T18:48:03.788Z,71.59
2024-03-02T18:51:30.860Z,71.68
2024-03-02T18:54:59.680Z,71.73
2024-03-02T18:58:26.943Z,71.72
2024-03-02T19:01:53.487Z,71.77
2024-03-02T19:05:19.927Z,71.81
2024-03-02T19:08:46.174Z,71.99
2024-03-02T19:12:12.708Z,71.98
2024-03-02T19:15:38.766Z,72.21
2024-03-02T19:19:05.303Z,72.20
2024-03-02T19:22:34.442Z,72.33
2024-03-02T19:26:00.932Z,72.47
2024-03-02T19:29:30.123Z,72.59
2024-03-02T19:32:56.052Z,72.63
2024-03-02T19:36:22.522Z,72.62
2024-03-02T19:39:48.689Z,72.66
2024-03-02T19:43:19.024Z,72.45
2024-03-02T19:46:48.596Z,72.30
2024-03-02T19:50:15.719Z,72.27
2024-03-02T19:53:42.212Z,72.46
2024-03-02T19:57:08.473Z,72.47
2024-03-02T20:00:40.033Z,72.35
2024-03-02T20:04:06.737Z,72.33
2024-03-02T20:07:33.753Z,72.22
2024-03-02T20:10:59.757Z,72.30
2024-03-02T20:14:27.734Z,72.45
2024-03-02T20:17:56.090Z,72.64
2024-03-02T20:21:22.505Z,72.65
2024-03-02T20:24:49.390Z,72.74
2024-03-02T20:28:18.614Z,72.86
2024-03-02T20:31:51.542Z,72.70
2024-03-02T20:35:18.398Z,72.82
2024-03-02T20:38:44.405Z,72.96
2024-03-02T20:42:10.910Z,72.90
2024-03-02T20:45:39.892Z,73.12
2024-03-02T20:49:06.880Z,73.01
2024-03-02T20:52:33.447Z,72.87
2024-03-02T20:55:59.604Z,72.83
2024-03-02T20:59:28.435Z,72.82
2024-03-02T21:02:54.423Z,72.89
2024-03-02T21:06:21.021Z,72.63
2024-03-02T21:09:47.284Z,72.96
2024-03-02T21:13:13.915Z,73.01
2024-03-02T21:16:42.504Z,72.74
2024-03-02T21:20:10.998Z,72.85
2024-03-02T21:23:37.351Z,73.01
2024-03-02T21:27:04.314Z,73.27
2024-03-02T21:30:32.346Z,72.97
2024-03-02T21:33:58.760Z,73.33
2024-03-02T21:37:25.841Z,73.36
2024-03-02T21:40:52.620Z,73.52
2024-03-02T21:44:19.600Z,73.51
2024-03-02T21:47:46.677Z,73.56
2024-03-02T21:51:18.651Z,73.53
2024-03-02T21:54:45.319Z,73.59
2024-03-02T21:58:13.751Z,73.54
2024-03-02T22:01:40.598Z,73.69
2024-03-02T22:05:08.563Z,73.51
2024-03-02T22:08:34.703Z,73.39
2024-03-02T22:12:02.548Z,73.52
2024-03-02T22:15:29.111Z,73.49
2024-03-02T22:18:56.646Z,73.61
2024-03-02T22:22:22.843Z,73.39
2024-03-02T22:25:49.712Z,73.50
2024-03-02T22:29:15.873Z,73.54
2024-03-02T22:32:41.949Z,73.56
2024-03-02T22:36:10.281Z,73.63
2024-03-02T22:39:36.169Z,73.71
2024-03-02T22:43:03.221Z,73.70
2024-03-02T22:46:29.726Z,74.04
2024-03-02T22:49:57.281Z,74.01
2024-03-02T22:53:23.634Z,73.93
2024-03-02T22:56:50.179Z,74.21
2024-03-02T23:00:31.303Z,74.13
2024-03-02T23:03:57.870Z,74.06
2024-03-02T23:07:24.272Z,74.06
2024-03-02T23:10:50.531Z,73.95
2024-03-02T23:14:16.613Z,73.70
2024-03-02T23:17:43.258Z,73.67
2024-03-02T23:21:10.016Z,73.83
2024-03-02T23:24:35.814Z,73.43
2024-03-02T23:28:03.356Z,73.39
2024-03-02T23:31:30.347Z,73.44
2024-03-02T23:34:56.894Z,73.65
2024-03-02T23:38:22.932Z,73.43
2024-03-02T23:41:51.375Z,73.94
2024-03-02T23:45:17.857Z,73.94
2024-03-02T23:48:48.554Z,73.97
2024-03-02T23:52:16.700Z,74.18
2024-03-02T23:55:51.829Z,74.13
2024-03-02T23:59:19.800Z,74.52
